createdAt,value
2017-04-30T00:00:16.099Z,0
2017-04-30T00:01:25.391Z,0
2017-04-30T00:02:34.429Z,0
2017-04-30T00:03:43.388Z,0
2017-04-30T00:04:52.435Z,0
2017-04-30T00:06:01.395Z,0
2017-04-30T00:07:10.648Z,0
2017-04-30T00:08:19.603Z,0
2017-04-30T00:09:28.561Z,0
2017-04-30T00:10:37.518Z,0
2017-04-30T00:11:46.474Z,0
2017-04-30T00:12:55.679Z,0
2017-04-30T00:14:04.667Z,0
2017-04-30T00:15:13.656Z,0
2017-04-30T00:16:22.697Z,0
2017-04-30T00:17:31.660Z,0
2017-04-30T00:18:40.960Z,0
2017-04-30T00:19:49.918Z,0
2017-04-30T00:20:58.878Z,0
2017-04-30T00:22:07.826Z,0
2017-04-30T00:23:16.776Z,0
2017-04-30T00:24:25.991Z,0
2017-04-30T00:25:34.945Z,0
2017-04-30T00:26:43.896Z,0
2017-04-30T00:27:52.938Z,0
2017-04-30T00:29:01.900Z,0
2017-04-30T00:30:11.103Z,0
2017-04-30T00:31:20.136Z,0
2017-04-30T00:32:29.089Z,0
2017-04-30T00:33:38.364Z,0
2017-04-30T00:34:47.311Z,0
2017-04-30T00:35:56.510Z,0
2017-04-30T00:37:05.462Z,0
2017-04-30T00:38:14.420Z,0
2017-04-30T00:39:23.373Z,0
2017-04-30T00:40:32.324Z,0
2017-04-30T00:41:41.525Z,0
2017-04-30T00:42:50.485Z,0
2017-04-30T00:43:59.439Z,0
2017-04-30T00:45:08.390Z,0
2017-04-30T00:46:17.347Z,0
2017-04-30T00:47:26.556Z,0
2017-04-30T00:48:35.512Z,0
2017-04-30T00:49:44.466Z,0
2017-04-30T00:50:53.417Z,0
2017-04-30T00:52:02.453Z,0
2017-04-30T00:53:11.660Z,0
2017-04-30T00:54:20.612Z,0
2017-04-30T00:55:29.573Z,0
2017-04-30T00:56:38.524Z,0
2017-04-30T00:57:47.478Z,0
2017-04-30T00:58:56.709Z,0
2017-04-30T01:00:05.668Z,0
2017-04-30T01:01:14.618Z,0
2017-04-30T01:02:23.571Z,0
2017-04-30T01:03:32.530Z,0
2017-04-30T01:04:41.736Z,0
2017-04-30T01:05:50.691Z,0
2017-04-30T01:06:59.646Z,0
2017-04-30T01:08:08.921Z,0
2017-04-30T01:09:17.882Z,0
2017-04-30T01:10:27.081Z,0
2017-04-30T01:11:36.034Z,0
2017-04-30T01:12:45.309Z,0
2017-04-30T01:13:54.264Z,0
2017-04-30T01:15:03.218Z,0
2017-04-30T01:16:12.469Z,0
2017-04-30T01:17:21.510Z,0
2017-04-30T01:18:30.465Z,0
2017-04-30T01:19:39.412Z,0
2017-04-30T01:20:48.358Z,0
2017-04-30T01:21:57.649Z,0
2017-04-30T01:23:06.600Z,0
2017-04-30T01:24:15.554Z,0
2017-04-30T01:25:24.506Z,0
2017-04-30T01:26:33.461Z,0
2017-04-30T01:27:42.839Z,0
2017-04-30T01:28:51.790Z,0
2017-04-30T01:30:00.745Z,0
2017-04-30T01:31:09.700Z,0
2017-04-30T01:32:18.971Z,0
2017-04-30T01:33:28.225Z,0
2017-04-30T01:34:37.178Z,0
2017-04-30T01:35:46.129Z,0
2017-04-30T01:36:55.074Z,0
2017-04-30T01:38:04.032Z,0
2017-04-30T01:39:13.325Z,0
2017-04-30T01:40:22.366Z,0
2017-04-30T01:41:31.321Z,0
2017-04-30T01:42:40.275Z,0
2017-04-30T01:43:49.235Z,0
2017-04-30T01:44:58.613Z,0
2017-04-30T01:46:07.566Z,0
2017-04-30T01:47:16.599Z,0
2017-04-30T01:48:25.557Z,0
2017-04-30T01:49:34.513Z,0
2017-04-30T01:50:43.716Z,0
2017-04-30T01:51:52.664Z,0
2017-04-30T01:53:01.624Z,0
2017-04-30T01:54:10.576Z,0
2017-04-30T01:55:19.524Z,0
2017-04-30T01:56:28.816Z,0
2017-04-30T01:57:37.772Z,0
2017-04-30T01:58:46.733Z,0
2017-04-30T01:59:55.684Z,0
2017-04-30T02:01:04.636Z,0
2017-04-30T02:02:13.925Z,0
2017-04-30T02:03:22.874Z,0
2017-04-30T02:04:31.823Z,0
2017-04-30T02:05:40.769Z,0
2017-04-30T02:06:49.808Z,0
2017-04-30T02:07:59.010Z,0
2017-04-30T02:09:07.965Z,0
2017-04-30T02:10:16.929Z,0
2017-04-30T02:11:26.622Z,0
2017-04-30T02:12:35.572Z,0
2017-04-30T02:13:44.858Z,0
2017-04-30T02:14:53.819Z,0
2017-04-30T02:16:02.772Z,0
2017-04-30T02:17:11.808Z,0
2017-04-30T02:18:20.764Z,0
2017-04-30T02:19:30.010Z,0
2017-04-30T02:20:39.335Z,0
2017-04-30T02:21:48.288Z,0
2017-04-30T02:22:57.241Z,0
2017-04-30T02:24:06.189Z,0
2017-04-30T02:25:15.394Z,0
2017-04-30T02:26:24.340Z,0
2017-04-30T02:27:33.380Z,0
2017-04-30T02:28:42.337Z,0
2017-04-30T02:29:51.291Z,0
2017-04-30T02:31:00.540Z,0
2017-04-30T02:32:09.494Z,0
2017-04-30T02:33:18.448Z,0
2017-04-30T02:34:27.399Z,0
2017-04-30T02:35:36.436Z,0
2017-04-30T02:36:45.635Z,0
2017-04-30T02:37:54.671Z,0
2017-04-30T02:39:03.622Z,0
2017-04-30T02:40:12.572Z,0
2017-04-30T02:41:21.524Z,0
2017-04-30T02:42:30.808Z,0
2017-04-30T02:43:39.765Z,0
2017-04-30T02:44:48.803Z,0
2017-04-30T02:45:57.753Z,0
2017-04-30T02:47:06.702Z,0
2017-04-30T02:48:16.288Z,0
2017-04-30T02:49:25.242Z,0
2017-04-30T02:50:34.283Z,0
2017-04-30T02:51:43.233Z,0
2017-04-30T02:52:52.182Z,0
2017-04-30T02:54:02.137Z,0
2017-04-30T02:55:11.095Z,0
2017-04-30T02:56:20.049Z,0
2017-04-30T02:57:29.092Z,0
2017-04-30T02:58:38.046Z,0
2017-04-30T02:59:47.255Z,0
2017-04-30T03:00:56.206Z,0
2017-04-30T03:02:05.156Z,0
2017-04-30T03:03:14.112Z,0
2017-04-30T03:04:23.391Z,0
2017-04-30T03:05:32.592Z,0
2017-04-30T03:06:41.544Z,4
2017-04-30T03:07:50.535Z,4
2017-04-30T03:08:59.483Z,0
2017-04-30T03:10:08.433Z,4
2017-04-30T03:11:17.689Z,4
2017-04-30T03:12:26.635Z,4
2017-04-30T03:13:35.593Z,4
2017-04-30T03:14:44.717Z,4
2017-04-30T03:15:53.664Z,8
2017-04-30T03:17:02.862Z,8
2017-04-30T03:18:11.814Z,8
2017-04-30T03:19:20.768Z,8
2017-04-30T03:20:33.060Z,8
2017-04-30T03:21:42.040Z,12
2017-04-30T03:22:51.292Z,12
2017-04-30T03:24:00.339Z,16
2017-04-30T03:25:09.318Z,16
2017-04-30T03:26:18.271Z,20
2017-04-30T03:27:27.224Z,20
2017-04-30T03:28:36.435Z,28
2017-04-30T03:29:45.476Z,32
2017-04-30T03:30:54.426Z,36
2017-04-30T03:32:03.378Z,40
2017-04-30T03:33:12.336Z,40
2017-04-30T03:34:21.539Z,48
2017-04-30T03:35:30.489Z,52
2017-04-30T03:36:39.525Z,56
2017-04-30T03:37:48.490Z,64
2017-04-30T03:38:57.482Z,68
2017-04-30T03:40:06.682Z,76
2017-04-30T03:41:15.633Z,84
2017-04-30T03:42:24.581Z,92
2017-04-30T03:43:33.543Z,96
2017-04-30T03:44:42.589Z,108
2017-04-30T03:45:51.922Z,112
2017-04-30T03:47:00.871Z,124
2017-04-30T03:48:09.905Z,128
2017-04-30T03:49:19.177Z,140
2017-04-30T03:50:28.125Z,148
2017-04-30T03:51:37.325Z,160
2017-04-30T03:52:46.282Z,168
2017-04-30T03:53:55.236Z,180
2017-04-30T03:55:04.538Z,188
2017-04-30T03:56:13.491Z,200
2017-04-30T03:57:22.741Z,212
2017-04-30T03:58:31.699Z,224
2017-04-30T03:59:40.748Z,236
2017-04-30T04:00:49.698Z,244
2017-04-30T04:01:58.646Z,260
2017-04-30T04:03:07.864Z,272
2017-04-30T04:04:16.818Z,284
2017-04-30T04:05:25.810Z,292
2017-04-30T04:06:34.759Z,308
2017-04-30T04:07:43.711Z,316
2017-04-30T04:08:52.973Z,332
2017-04-30T04:10:02.251Z,340
2017-04-30T04:11:11.204Z,356
2017-04-30T04:12:20.162Z,368
2017-04-30T04:13:29.149Z,380
2017-04-30T04:14:38.348Z,392
2017-04-30T04:15:47.343Z,400
2017-04-30T04:16:56.303Z,416
2017-04-30T04:18:05.345Z,424
2017-04-30T04:19:14.385Z,440
2017-04-30T04:20:23.666Z,452
2017-04-30T04:21:32.609Z,460
2017-04-30T04:22:41.555Z,472
2017-04-30T04:23:50.504Z,484
2017-04-30T04:24:59.452Z,492
2017-04-30T04:26:08.651Z,508
2017-04-30T04:27:17.682Z,516
2017-04-30T04:28:26.630Z,528
2017-04-30T04:29:35.582Z,540
2017-04-30T04:30:44.534Z,548
2017-04-30T04:31:53.732Z,560
2017-04-30T04:33:02.694Z,576
2017-04-30T04:34:11.669Z,588
2017-04-30T04:35:20.617Z,600
2017-04-30T04:36:29.564Z,608
2017-04-30T04:37:38.767Z,620
2017-04-30T04:38:47.736Z,636
2017-04-30T04:39:56.685Z,644
2017-04-30T04:41:05.646Z,652
2017-04-30T04:42:14.598Z,664
2017-04-30T04:43:23.888Z,676
2017-04-30T04:44:32.840Z,684
2017-04-30T04:45:41.796Z,696
2017-04-30T04:46:50.757Z,708
2017-04-30T04:48:00.032Z,712
2017-04-30T04:49:09.290Z,728
2017-04-30T04:50:18.238Z,732
2017-04-30T04:51:27.184Z,736
2017-04-30T04:52:36.139Z,744
2017-04-30T04:53:45.094Z,752
2017-04-30T04:54:54.291Z,760
2017-04-30T04:56:03.247Z,768
2017-04-30T04:57:12.193Z,776
2017-04-30T04:58:21.150Z,784
2017-04-30T04:59:30.101Z,796
2017-04-30T05:00:39.299Z,804
2017-04-30T05:01:48.251Z,812
2017-04-30T05:02:57.301Z,820
2017-04-30T05:04:06.259Z,832
2017-04-30T05:05:15.300Z,840
2017-04-30T05:06:24.552Z,852
2017-04-30T05:07:33.505Z,860
2017-04-30T05:08:42.454Z,872
2017-04-30T05:09:51.493Z,884
2017-04-30T05:11:00.452Z,892
2017-04-30T05:12:09.649Z,904
2017-04-30T05:13:18.612Z,916
2017-04-30T05:14:27.566Z,924
2017-04-30T05:15:36.520Z,936
2017-04-30T05:16:45.472Z,944
2017-04-30T05:17:54.700Z,952
2017-04-30T05:19:03.658Z,956
2017-04-30T05:20:12.616Z,968
2017-04-30T05:21:21.567Z,976
2017-04-30T05:22:30.512Z,992
2017-04-30T05:23:39.712Z,1000
2017-04-30T05:24:48.667Z,1008
2017-04-30T05:25:57.614Z,1016
2017-04-30T05:27:06.562Z,1024
2017-04-30T05:28:15.518Z,1032
2017-04-30T05:29:24.730Z,1044
2017-04-30T05:30:33.687Z,1052
2017-04-30T05:31:42.642Z,1060
2017-04-30T05:32:51.591Z,1076
2017-04-30T05:34:00.542Z,1084
2017-04-30T05:35:09.742Z,1096
2017-04-30T05:36:18.698Z,1108
2017-04-30T05:37:27.654Z,1112
2017-04-30T05:38:36.608Z,1128
2017-04-30T05:39:45.557Z,1140
2017-04-30T05:40:54.796Z,1148
2017-04-30T05:42:04.072Z,1164
2017-04-30T05:43:13.356Z,1168
2017-04-30T05:44:22.306Z,1176
2017-04-30T05:45:31.345Z,1188
2017-04-30T05:46:40.598Z,1200
2017-04-30T05:47:49.550Z,1220
2017-04-30T05:48:58.499Z,1228
2017-04-30T05:50:07.445Z,1248
2017-04-30T05:51:16.394Z,1260
2017-04-30T05:52:25.590Z,1268
2017-04-30T05:53:34.542Z,1284
2017-04-30T05:54:43.491Z,1288
2017-04-30T05:55:52.439Z,1304
2017-04-30T05:57:01.712Z,1320
2017-04-30T05:58:10.919Z,1332
2017-04-30T05:59:19.872Z,1348
2017-04-30T06:00:28.833Z,1356
2017-04-30T06:01:37.786Z,1364
2017-04-30T06:02:46.779Z,1380
2017-04-30T06:03:56.075Z,1392
2017-04-30T06:05:05.110Z,1416
2017-04-30T06:06:14.148Z,1424
2017-04-30T06:07:23.099Z,1444
2017-04-30T06:08:32.051Z,1472
2017-04-30T06:09:41.300Z,1580
2017-04-30T06:10:50.249Z,1736
2017-04-30T06:11:59.283Z,2420
2017-04-30T06:13:08.560Z,2728
2017-04-30T06:14:17.601Z,2816
2017-04-30T06:15:26.852Z,2208
2017-04-30T06:16:35.806Z,1592
2017-04-30T06:17:44.764Z,1524
2017-04-30T06:18:53.719Z,1536
2017-04-30T06:20:02.670Z,1540
2017-04-30T06:21:11.923Z,1552
2017-04-30T06:22:20.875Z,1576
2017-04-30T06:23:29.833Z,1600
2017-04-30T06:24:38.792Z,1608
2017-04-30T06:25:47.832Z,1620
2017-04-30T06:26:57.029Z,1632
2017-04-30T06:28:05.977Z,1628
2017-04-30T06:29:14.931Z,1636
2017-04-30T06:30:23.888Z,1644
2017-04-30T06:31:33.183Z,1652
2017-04-30T06:32:42.445Z,1632
2017-04-30T06:33:51.413Z,1664
2017-04-30T06:35:00.375Z,1652
2017-04-30T06:36:09.325Z,1660
2017-04-30T06:37:18.276Z,1648
2017-04-30T06:38:27.478Z,1660
2017-04-30T06:39:36.426Z,1668
2017-04-30T06:40:45.379Z,1660
2017-04-30T06:41:54.331Z,1664
2017-04-30T06:43:03.284Z,1672
2017-04-30T06:44:12.498Z,1680
2017-04-30T06:45:21.452Z,1692
2017-04-30T06:46:30.415Z,1700
2017-04-30T06:47:39.373Z,1692
2017-04-30T06:48:48.331Z,1708
2017-04-30T06:49:57.540Z,1700
2017-04-30T06:51:06.494Z,1712
2017-04-30T06:52:15.453Z,1724
2017-04-30T06:53:24.426Z,1708
2017-04-30T06:54:33.379Z,1720
2017-04-30T06:55:42.641Z,1728
2017-04-30T06:56:51.674Z,1736
2017-04-30T06:58:00.625Z,1764
2017-04-30T06:59:09.581Z,1776
2017-04-30T07:00:18.530Z,1796
2017-04-30T07:01:27.786Z,1800
2017-04-30T07:02:36.737Z,1804
2017-04-30T07:03:45.693Z,1816
2017-04-30T07:04:54.646Z,1820
2017-04-30T07:06:03.603Z,1832
2017-04-30T07:07:12.855Z,1804
2017-04-30T07:08:21.804Z,1836
2017-04-30T07:09:30.774Z,1832
2017-04-30T07:10:39.721Z,1832
2017-04-30T07:11:48.670Z,1852
2017-04-30T07:12:57.960Z,1900
2017-04-30T07:14:06.913Z,1848
2017-04-30T07:15:15.868Z,1844
2017-04-30T07:16:24.820Z,1876
2017-04-30T07:17:33.773Z,1908
2017-04-30T07:18:42.983Z,1920
2017-04-30T07:19:51.967Z,1912
2017-04-30T07:21:00.927Z,1888
2017-04-30T07:22:09.880Z,1944
2017-04-30T07:23:18.950Z,1920
2017-04-30T07:24:28.480Z,1884
2017-04-30T07:25:37.445Z,1900
2017-04-30T07:26:46.394Z,1928
2017-04-30T07:27:55.345Z,2016
2017-04-30T07:29:04.297Z,1984
2017-04-30T07:30:13.499Z,1988
2017-04-30T07:31:22.449Z,2260
2017-04-30T07:32:31.497Z,3048
2017-04-30T07:33:40.782Z,3572
2017-04-30T07:34:49.738Z,3416
2017-04-30T07:35:58.939Z,3324
2017-04-30T07:37:07.891Z,3072
2017-04-30T07:38:16.857Z,3020
2017-04-30T07:39:25.812Z,2656
2017-04-30T07:40:34.761Z,2572
2017-04-30T07:41:43.960Z,2688
2017-04-30T07:42:52.924Z,2712
2017-04-30T07:44:02.203Z,2680
2017-04-30T07:45:11.159Z,2304
2017-04-30T07:46:20.192Z,2476
2017-04-30T07:47:29.396Z,2584
2017-04-30T07:48:38.350Z,3252
2017-04-30T07:49:47.300Z,2928
2017-04-30T07:50:56.253Z,2100
2017-04-30T07:52:05.204Z,2076
2017-04-30T07:53:14.417Z,2160
2017-04-30T07:54:23.460Z,2144
2017-04-30T07:55:32.414Z,2392
2017-04-30T07:56:41.377Z,2352
2017-04-30T07:57:50.342Z,2236
2017-04-30T07:58:59.598Z,2364
2017-04-30T08:00:08.637Z,2280
2017-04-30T08:01:17.589Z,2256
2017-04-30T08:02:26.550Z,2328
2017-04-30T08:03:35.505Z,2340
2017-04-30T08:04:44.770Z,2244
2017-04-30T08:05:53.730Z,2360
2017-04-30T08:07:02.683Z,2328
2017-04-30T08:08:11.645Z,2676
2017-04-30T08:09:20.718Z,2756
2017-04-30T08:10:29.918Z,2444
2017-04-30T08:11:38.876Z,2488
2017-04-30T08:12:47.833Z,2512
2017-04-30T08:13:56.792Z,2876
2017-04-30T08:15:05.744Z,3120
2017-04-30T08:16:14.945Z,3020
2017-04-30T08:17:23.987Z,3268
2017-04-30T08:18:32.976Z,2820
2017-04-30T08:19:41.934Z,2628
2017-04-30T08:20:50.890Z,3032
2017-04-30T08:22:00.186Z,3372
2017-04-30T08:23:09.140Z,3860
2017-04-30T08:24:18.126Z,3236
2017-04-30T08:25:27.084Z,2912
2017-04-30T08:26:36.039Z,2908
2017-04-30T08:27:45.383Z,3016
2017-04-30T08:28:54.337Z,2980
2017-04-30T08:30:03.287Z,3264
2017-04-30T08:31:12.279Z,3644
2017-04-30T08:32:21.556Z,3504
2017-04-30T08:33:30.861Z,3380
2017-04-30T08:34:39.833Z,3492
2017-04-30T08:35:48.786Z,3524
2017-04-30T08:36:57.745Z,3512
2017-04-30T08:38:06.823Z,3660
2017-04-30T08:39:16.082Z,3424
2017-04-30T08:40:25.040Z,3404
2017-04-30T08:41:33.990Z,3280
2017-04-30T08:42:42.946Z,3272
2017-04-30T08:43:51.904Z,3816
2017-04-30T08:45:01.110Z,3776
2017-04-30T08:46:10.152Z,4736
2017-04-30T08:47:19.107Z,4888
2017-04-30T08:48:28.065Z,3808
2017-04-30T08:49:37.028Z,2272
2017-04-30T08:50:46.239Z,2904
2017-04-30T08:51:55.514Z,2964
2017-04-30T08:53:04.473Z,5480
2017-04-30T08:54:13.434Z,3668
2017-04-30T08:55:22.391Z,4492
2017-04-30T08:56:31.590Z,4364
2017-04-30T08:57:40.553Z,4700
2017-04-30T08:58:49.504Z,4484
2017-04-30T08:59:58.463Z,3672
2017-04-30T09:01:07.420Z,4192
2017-04-30T09:02:16.632Z,3312
2017-04-30T09:03:25.585Z,3036
2017-04-30T09:04:34.534Z,4796
2017-04-30T09:05:43.661Z,4344
2017-04-30T09:06:52.707Z,2300
2017-04-30T09:08:01.967Z,2640
2017-04-30T09:09:10.922Z,2576
2017-04-30T09:10:19.884Z,2604
2017-04-30T09:11:28.876Z,2816
2017-04-30T09:12:37.829Z,2320
2017-04-30T09:13:47.130Z,2080
2017-04-30T09:14:56.086Z,2380
2017-04-30T09:16:05.040Z,2332
2017-04-30T09:17:14.001Z,2352
2017-04-30T09:18:22.961Z,2472
2017-04-30T09:19:32.498Z,2372
2017-04-30T09:20:41.862Z,2260
2017-04-30T09:21:50.816Z,2244
2017-04-30T09:22:59.856Z,2220
2017-04-30T09:24:08.814Z,2208
2017-04-30T09:25:18.076Z,2428
2017-04-30T09:26:27.032Z,2928
2017-04-30T09:27:35.986Z,2956
2017-04-30T09:28:44.941Z,3184
2017-04-30T09:29:53.895Z,2760
2017-04-30T09:31:03.108Z,2132
2017-04-30T09:32:12.062Z,2492
2017-04-30T09:33:21.108Z,2436
2017-04-30T09:34:30.165Z,2668
2017-04-30T09:35:39.128Z,2896
2017-04-30T09:36:48.332Z,3164
2017-04-30T09:37:57.289Z,3864
2017-04-30T09:39:06.243Z,3240
2017-04-30T09:40:15.196Z,2780
2017-04-30T09:41:24.242Z,4756
2017-04-30T09:42:33.495Z,3684
2017-04-30T09:43:42.460Z,3024
2017-04-30T09:44:51.415Z,3204
2017-04-30T09:46:00.368Z,3304
2017-04-30T09:47:09.323Z,2772
2017-04-30T09:48:18.582Z,3304
2017-04-30T09:49:28.192Z,2352
2017-04-30T09:50:37.152Z,1584
2017-04-30T09:51:46.113Z,1708
2017-04-30T09:52:55.392Z,2384
2017-04-30T09:54:04.692Z,2356
2017-04-30T09:55:13.736Z,2428
2017-04-30T09:56:22.686Z,2488
2017-04-30T09:57:31.639Z,2380
2017-04-30T09:58:40.599Z,2332
2017-04-30T09:59:49.807Z,2288
2017-04-30T10:00:58.765Z,2328
2017-04-30T10:02:07.809Z,2400
2017-04-30T10:03:16.767Z,1544
2017-04-30T10:04:25.726Z,1736
2017-04-30T10:05:34.980Z,2456
2017-04-30T10:06:43.936Z,2452
2017-04-30T10:07:52.977Z,1588
2017-04-30T10:09:01.974Z,2232
2017-04-30T10:10:11.256Z,2072
2017-04-30T10:11:20.461Z,2332
2017-04-30T10:12:29.415Z,1540
2017-04-30T10:13:38.368Z,1832
2017-04-30T10:14:47.317Z,2296
2017-04-30T10:15:56.282Z,2636
2017-04-30T10:17:05.497Z,3036
2017-04-30T10:18:14.463Z,2912
2017-04-30T10:19:23.429Z,2924
2017-04-30T10:20:32.383Z,3848
2017-04-30T10:21:41.665Z,2720
2017-04-30T10:22:50.870Z,2372
2017-04-30T10:23:59.828Z,2264
2017-04-30T10:25:08.778Z,2216
2017-04-30T10:26:17.737Z,2156
2017-04-30T10:27:26.696Z,2192
2017-04-30T10:28:35.901Z,2184
2017-04-30T10:29:44.861Z,2196
2017-04-30T10:30:54.133Z,2184
2017-04-30T10:32:03.185Z,1560
2017-04-30T10:33:12.141Z,2004
2017-04-30T10:34:21.353Z,2176
2017-04-30T10:35:30.309Z,2200
2017-04-30T10:36:39.268Z,2200
2017-04-30T10:37:48.225Z,2224
2017-04-30T10:38:57.186Z,2196
2017-04-30T10:40:06.406Z,2224
2017-04-30T10:41:15.367Z,2332
2017-04-30T10:42:24.326Z,2724
2017-04-30T10:43:33.283Z,2532
2017-04-30T10:44:42.242Z,2320
2017-04-30T10:45:51.501Z,3184
2017-04-30T10:47:00.457Z,3236
2017-04-30T10:48:09.413Z,2500
2017-04-30T10:49:18.373Z,2396
2017-04-30T10:50:27.333Z,1564
2017-04-30T10:51:36.541Z,2360
2017-04-30T10:52:45.508Z,2320
2017-04-30T10:53:54.474Z,2084
2017-04-30T10:55:03.433Z,2296
2017-04-30T10:56:12.392Z,2256
2017-04-30T10:57:21.654Z,2288
2017-04-30T10:58:30.612Z,1540
2017-04-30T10:59:39.574Z,2284
2017-04-30T11:00:48.529Z,2360
2017-04-30T11:01:57.813Z,2312
2017-04-30T11:03:07.072Z,2240
2017-04-30T11:04:16.029Z,2224
2017-04-30T11:05:24.986Z,2216
2017-04-30T11:06:33.982Z,2316
2017-04-30T11:07:42.940Z,2348
2017-04-30T11:08:52.147Z,2372
2017-04-30T11:10:01.101Z,2400
2017-04-30T11:11:10.055Z,2796
2017-04-30T11:12:19.017Z,2584
2017-04-30T11:13:27.974Z,2728
2017-04-30T11:14:37.411Z,2336
2017-04-30T11:15:46.373Z,2688
2017-04-30T11:16:55.327Z,1772
2017-04-30T11:18:04.289Z,3028
2017-04-30T11:19:13.247Z,3216
2017-04-30T11:20:22.500Z,3080
2017-04-30T11:21:31.456Z,2484
2017-04-30T11:22:40.411Z,2280
2017-04-30T11:23:49.455Z,2348
2017-04-30T11:24:58.505Z,2272
2017-04-30T11:26:07.797Z,3344
2017-04-30T11:27:16.755Z,3304
2017-04-30T11:28:25.712Z,3064
2017-04-30T11:29:34.669Z,2076
2017-04-30T11:30:43.625Z,2072
2017-04-30T11:31:52.878Z,2172
2017-04-30T11:33:01.918Z,2276
2017-04-30T11:34:10.877Z,1668
2017-04-30T11:35:19.826Z,3004
2017-04-30T11:36:28.780Z,3428
2017-04-30T11:37:38.036Z,2808
2017-04-30T11:38:46.987Z,2828
2017-04-30T11:39:55.949Z,3164
2017-04-30T11:41:04.909Z,3768
2017-04-30T11:42:13.951Z,3348
2017-04-30T11:43:23.161Z,2556
2017-04-30T11:44:32.454Z,2212
2017-04-30T11:45:41.535Z,2400
2017-04-30T11:46:50.490Z,3200
2017-04-30T11:47:59.452Z,2908
2017-04-30T11:49:08.712Z,2264
2017-04-30T11:50:17.715Z,2092
2017-04-30T11:51:26.768Z,2136
2017-04-30T11:52:35.808Z,2336
2017-04-30T11:53:44.780Z,2620
2017-04-30T11:54:53.989Z,3524
2017-04-30T11:56:02.965Z,3492
2017-04-30T11:57:11.918Z,1588
2017-04-30T11:58:20.872Z,1192
2017-04-30T11:59:29.837Z,1104
2017-04-30T12:00:39.039Z,2124
2017-04-30T12:01:48.001Z,2116
2017-04-30T12:02:56.957Z,2060
2017-04-30T12:04:05.919Z,2064
2017-04-30T12:05:14.881Z,2040
2017-04-30T12:06:24.413Z,2020
2017-04-30T12:07:33.374Z,2000
2017-04-30T12:08:42.331Z,1924
2017-04-30T12:09:51.283Z,1940
2017-04-30T12:11:00.239Z,1992
2017-04-30T12:12:09.505Z,2020
2017-04-30T12:13:18.470Z,1984
2017-04-30T12:14:27.424Z,1936
2017-04-30T12:15:36.380Z,1776
2017-04-30T12:16:45.337Z,1968
2017-04-30T12:17:54.547Z,1876
2017-04-30T12:19:03.516Z,1864
2017-04-30T12:20:12.476Z,1872
2017-04-30T12:21:21.433Z,2076
2017-04-30T12:22:30.384Z,2760
2017-04-30T12:23:39.593Z,2500
2017-04-30T12:24:48.555Z,2124
2017-04-30T12:25:57.603Z,2460
2017-04-30T12:27:06.560Z,2184
2017-04-30T12:28:15.538Z,2116
2017-04-30T12:29:24.796Z,1868
2017-04-30T12:30:33.836Z,1840
2017-04-30T12:31:42.794Z,1816
2017-04-30T12:32:51.842Z,1796
2017-04-30T12:34:00.802Z,1780
2017-04-30T12:35:10.015Z,1760
2017-04-30T12:36:18.977Z,1760
2017-04-30T12:37:28.257Z,1760
2017-04-30T12:38:37.216Z,1752
2017-04-30T12:39:46.498Z,1752
2017-04-30T12:40:56.076Z,1740
2017-04-30T12:42:05.119Z,1732
2017-04-30T12:43:14.082Z,1732
2017-04-30T12:44:23.035Z,1728
2017-04-30T12:45:32.002Z,1716
2017-04-30T12:46:41.209Z,1720
2017-04-30T12:47:50.167Z,1716
2017-04-30T12:48:59.133Z,1716
2017-04-30T12:50:08.416Z,1712
2017-04-30T12:51:17.464Z,1708
2017-04-30T12:52:26.678Z,1720
2017-04-30T12:53:35.638Z,1724
2017-04-30T12:54:44.592Z,1724
2017-04-30T12:55:53.586Z,1736
2017-04-30T12:57:02.548Z,1732
2017-04-30T12:58:11.757Z,1744
2017-04-30T12:59:20.717Z,1740
2017-04-30T13:00:29.674Z,1736
2017-04-30T13:01:38.633Z,1752
2017-04-30T13:02:47.593Z,1756
2017-04-30T13:03:56.815Z,1764
2017-04-30T13:05:06.105Z,1776
2017-04-30T13:06:15.384Z,1776
2017-04-30T13:07:24.343Z,1784
2017-04-30T13:08:33.313Z,1796
2017-04-30T13:09:42.577Z,1804
2017-04-30T13:10:51.533Z,1804
2017-04-30T13:12:00.498Z,1804
2017-04-30T13:13:09.543Z,1812
2017-04-30T13:14:18.505Z,1824
2017-04-30T13:15:27.766Z,1836
2017-04-30T13:16:36.726Z,1844
2017-04-30T13:17:45.688Z,1844
2017-04-30T13:18:54.647Z,1856
2017-04-30T13:20:03.608Z,1868
2017-04-30T13:21:12.903Z,1860
2017-04-30T13:22:21.857Z,1864
2017-04-30T13:23:30.821Z,1876
2017-04-30T13:24:39.778Z,1884
2017-04-30T13:25:48.737Z,1880
2017-04-30T13:26:57.943Z,1884
2017-04-30T13:28:06.902Z,1888
2017-04-30T13:29:15.863Z,1896
2017-04-30T13:30:24.827Z,1896
2017-04-30T13:31:33.779Z,1896
2017-04-30T13:32:42.991Z,1884
2017-04-30T13:33:51.957Z,1916
2017-04-30T13:35:00.927Z,1916
2017-04-30T13:36:09.886Z,1924
2017-04-30T13:37:18.848Z,1916
2017-04-30T13:38:28.061Z,1932
2017-04-30T13:39:37.022Z,1928
2017-04-30T13:40:45.977Z,1920
2017-04-30T13:41:55.018Z,1924
2017-04-30T13:43:03.976Z,1932
2017-04-30T13:44:13.183Z,1932
2017-04-30T13:45:22.229Z,1936
2017-04-30T13:46:31.271Z,1944
2017-04-30T13:47:40.230Z,1956
2017-04-30T13:48:49.190Z,1972
2017-04-30T13:49:58.459Z,2048
2017-04-30T13:51:07.417Z,1956
2017-04-30T13:52:16.373Z,1952
2017-04-30T13:53:25.338Z,1952
2017-04-30T13:54:34.294Z,1932
2017-04-30T13:55:43.503Z,1928
2017-04-30T13:56:52.461Z,1928
2017-04-30T13:58:01.424Z,1924
2017-04-30T13:59:10.381Z,1904
2017-04-30T14:00:19.427Z,1900
2017-04-30T14:01:28.635Z,1888
2017-04-30T14:02:37.590Z,1908
2017-04-30T14:03:46.555Z,1924
2017-04-30T14:04:55.513Z,1916
2017-04-30T14:06:04.788Z,1912
2017-04-30T14:07:13.997Z,1912
2017-04-30T14:08:22.958Z,1904
2017-04-30T14:09:32.014Z,1896
2017-04-30T14:10:40.967Z,1888
2017-04-30T14:11:50.252Z,1880
2017-04-30T14:12:59.493Z,1872
2017-04-30T14:14:08.453Z,1872
2017-04-30T14:15:17.407Z,1876
2017-04-30T14:16:26.360Z,1888
2017-04-30T14:17:35.319Z,1888
2017-04-30T14:18:44.533Z,1888
2017-04-30T14:19:53.497Z,1884
2017-04-30T14:21:02.453Z,1864
2017-04-30T14:22:11.407Z,1872
2017-04-30T14:23:20.367Z,1864
2017-04-30T14:24:29.578Z,1864
2017-04-30T14:25:38.547Z,1860
2017-04-30T14:26:47.505Z,1848
2017-04-30T14:27:56.783Z,1848
2017-04-30T14:29:05.845Z,1828
2017-04-30T14:30:15.106Z,1844
2017-04-30T14:31:24.062Z,1832
2017-04-30T14:32:33.350Z,1828
2017-04-30T14:33:42.306Z,1820
2017-04-30T14:34:51.259Z,1808
2017-04-30T14:36:00.472Z,1820
2017-04-30T14:37:09.430Z,1824
2017-04-30T14:38:18.384Z,1808
2017-04-30T14:39:27.349Z,1828
2017-04-30T14:40:36.303Z,1804
2017-04-30T14:41:45.566Z,1776
2017-04-30T14:42:54.525Z,1800
2017-04-30T14:44:03.487Z,1776
2017-04-30T14:45:12.443Z,1764
2017-04-30T14:46:21.437Z,1756
2017-04-30T14:47:30.648Z,1760
2017-04-30T14:48:39.614Z,1768
2017-04-30T14:49:48.661Z,1772
2017-04-30T14:50:57.948Z,1772
2017-04-30T14:52:06.904Z,1760
2017-04-30T14:53:16.167Z,1660
2017-04-30T14:54:25.125Z,1588
2017-04-30T14:55:34.089Z,1536
2017-04-30T14:56:43.044Z,1664
2017-04-30T14:57:52.006Z,1500
2017-04-30T14:59:01.223Z,1500
2017-04-30T15:00:10.179Z,1600
2017-04-30T15:01:19.135Z,1596
2017-04-30T15:02:28.097Z,1620
2017-04-30T15:03:37.051Z,1620
2017-04-30T15:04:46.258Z,1700
2017-04-30T15:05:55.582Z,1740
2017-04-30T15:07:04.548Z,1740
2017-04-30T15:08:13.507Z,1720
2017-04-30T15:09:22.475Z,1708
2017-04-30T15:10:31.680Z,1680
2017-04-30T15:11:40.642Z,1676
2017-04-30T15:12:49.599Z,1640
2017-04-30T15:13:58.561Z,1648
2017-04-30T15:15:07.606Z,1684
2017-04-30T15:16:16.814Z,1672
2017-04-30T15:17:25.771Z,1688
2017-04-30T15:18:34.740Z,1676
2017-04-30T15:19:44.023Z,1672
2017-04-30T15:20:52.981Z,1688
2017-04-30T15:22:02.188Z,1676
2017-04-30T15:23:11.143Z,1692
2017-04-30T15:24:20.097Z,1644
2017-04-30T15:25:29.061Z,1640
2017-04-30T15:26:38.021Z,1632
2017-04-30T15:27:47.228Z,1628
2017-04-30T15:28:56.186Z,1616
2017-04-30T15:30:05.150Z,1572
2017-04-30T15:31:14.107Z,1536
2017-04-30T15:32:23.065Z,1512
2017-04-30T15:33:32.270Z,1472
2017-04-30T15:34:41.232Z,1472
2017-04-30T15:35:50.186Z,1476
2017-04-30T15:36:59.146Z,1444
2017-04-30T15:38:08.100Z,1404
2017-04-30T15:39:17.348Z,1440
2017-04-30T15:40:26.312Z,1484
2017-04-30T15:41:35.273Z,1440
2017-04-30T15:42:44.232Z,1428
2017-04-30T15:43:53.204Z,1464